Time,TemperatureF,DewpointF,PressureIn,WindDirection,WindDirectionDegrees,WindSpeedMPH,WindSpeedGustMPH,Humidity,HourlyPrecipIn,Conditions,Clouds,dailyrainin,SoftwareType,DateUTC
2013-03-22 00:00:00,23.6,17.0,30.05,West,276,2.0,5.0,75,0.00,,,0.02,weatherlink.com 1.10,2013-03-22 04:00:00,
2013-03-22 00:15:00,23.6,17.0,30.06,NW,313,0.0,4.0,77,0.00,,,0.02,weatherlink.com 1.10,2013-03-22 04:15:00,
2013-03-22 00:30:00,23.3,17.0,30.05,WNW,282,2.0,5.0,78,0.00,,,0.00,weatherlink.com 1.10,2013-03-22 04:30:00,
2013-03-22 00:45:00,23.1,17.0,30.05,WNW,291,1.0,4.0,78,0.00,,,0.00,weatherlink.com 1.10,2013-03-22 04:45:00,
2013-03-22 01:00:00,23.0,17.0,30.05,NW,323,0.0,5.0,79,0.00,,,0.00,weatherlink.com 1.10,2013-03-22 05:00:00,
2013-03-22 01:15:00,23.1,18.0,30.06,NW,321,1.0,5.0,79,0.00,,,0.00,weatherlink.com 1.10,2013-03-22 05:15:00,
2013-03-22 01:30:00,23.0,18.0,30.05,NW,315,1.0,5.0,80,0.00,,,0.00,weatherlink.com 1.10,2013-03-22 05:30:00,
2013-03-22 01:45:00,23.1,18.0,30.06,West,275,2.0,6.0,79,0.00,,,0.00,weatherlink.com 1.10,2013-03-22 05:45:00,
2013-03-22 02:00:00,23.2,18.0,30.05,West,272,3.0,4.0,79,0.00,,,0.00,weatherlink.com 1.10,2013-03-22 06:00:00,
2013-03-22 02:15:00,23.0,18.0,30.05,WNW,284,0.0,4.0,81,0.00,,,0.00,weatherlink.com 1.10,2013-03-22 06:15:00,
2013-03-22 02:30:00,22.6,18.0,30.05,WNW,285,1.0,4.0,81,0.00,,,0.00,weatherlink.com 1.10,2013-03-22 06:30:00,
2013-03-22 02:46:00,22.7,17.0,30.05,West,281,1.0,4.0,80,0.00,,,0.00,weatherlink.com 1.10,2013-03-22 06:46:00,
2013-03-22 03:01:00,22.1,18.0,30.05,WNW,300,0.0,3.0,83,0.00,,,0.00,weatherlink.com 1.10,2013-03-22 07:01:00,
2013-03-22 03:16:00,22.0,17.0,30.05,West,276,0.0,5.0,82,0.00,,,0.00,weatherlink.com 1.10,2013-03-22 07:16:00,
2013-03-22 03:31:00,21.5,18.0,30.06,West,276,0.0,2.0,85,0.00,,,0.00,weatherlink.com 1.10,2013-03-22 07:31:00,
2013-03-22 03:46:00,21.0,18.0,30.06,West,276,0.0,2.0,86,0.00,,,0.00,weatherlink.com 1.10,2013-03-22 07:46:00,
2013-03-22 04:46:00,20.8,17.0,30.05,West,269,3.0,5.0,86,0.00,,,0.00,weatherlink.com 1.10,2013-03-22 08:46:00,
2013-03-22 05:01:00,20.7,17.0,30.06,WSW,246,1.0,3.0,86,0.00,,,0.00,weatherlink.com 1.10,2013-03-22 09:01:00,
2013-03-22 05:16:00,20.6,17.0,30.06,WSW,254,1.0,3.0,87,0.00,,,0.00,weatherlink.com 1.10,2013-03-22 09:16:00,
2013-03-22 05:31:00,20.7,17.0,30.06,West,281,2.0,5.0,86,0.00,,,0.00,weatherlink.com 1.10,2013-03-22 09:31:00,
2013-03-22 05:46:00,20.5,17.0,30.06,West,279,2.0,3.0,86,0.00,,,0.00,weatherlink.com 1.10,2013-03-22 09:46:00,
2013-03-22 06:01:00,20.4,17.0,30.06,West,261,0.0,3.0,87,0.00,,,0.00,weatherlink.com 1.10,2013-03-22 10:01:00,
2013-03-22 06:16:00,20.4,17.0,30.06,WSW,256,2.0,4.0,87,0.00,,,0.00,weatherlink.com 1.10,2013-03-22 10:16:00,
2013-03-22 06:31:00,20.3,17.0,30.06,West,260,2.0,3.0,87,0.00,,,0.00,weatherlink.com 1.10,2013-03-22 10:31:00,
2013-03-22 06:46:00,20.1,17.0,30.06,West,263,0.0,5.0,88,0.00,,,0.00,weatherlink.com 1.10,2013-03-22 10:46:00,
2013-03-22 07:01:00,20.1,17.0,30.06,WNW,294,1.0,4.0,87,0.00,,,0.00,weatherlink.com 1.10,2013-03-22 11:01:00,
2013-03-22 07:16:00,20.3,17.0,30.07,WNW,285,0.0,3.0,87,0.00,,,0.00,weatherlink.com 1.10,2013-03-22 11:16:00,
2013-03-22 07:31:00,20.4,17.0,30.07,WSW,256,4.0,4.0,87,0.00,,,0.00,weatherlink.com 1.10,2013-03-22 11:31:00,
2013-03-22 07:46:00,20.4,17.0,30.07,West,267,1.0,4.0,87,0.00,,,0.00,weatherlink.com 1.10,2013-03-22 11:46:00,
2013-03-22 08:01:00,20.2,17.0,30.07,WSW,250,1.0,2.0,87,0.00,,,0.00,weatherlink.com 1.10,2013-03-22 12:01:00,
2013-03-22 08:16:00,20.0,17.0,30.07,West,262,1.0,3.0,88,0.00,,,0.00,weatherlink.com 1.10,2013-03-22 12:16:00,
2013-03-22 08:31:00,20.2,18.0,30.07,West,262,0.0,2.0,89,0.00,,,0.00,weatherlink.com 1.10,2013-03-22 12:31:00,
2013-03-22 08:47:00,21.0,19.0,30.07,West,276,2.0,3.0,90,0.00,,,0.00,weatherlink.com 1.10,2013-03-22 12:47:00,
2013-03-22 09:01:00,22.4,19.0,30.07,West,265,0.0,4.0,88,0.00,,,0.00,weatherlink.com 1.10,2013-03-22 13:01:00,
2013-03-22 09:16:00,24.0,20.0,30.07,WSW,243,0.0,4.0,85,0.00,,,0.00,weatherlink.com 1.10,2013-03-22 13:16:00,
2013-03-22 09:31:00,25.5,21.0,30.07,West,267,1.0,6.0,82,0.00,,,0.00,weatherlink.com 1.10,2013-03-22 13:31:00,
2013-03-22 10:02:00,27.8,21.0,30.07,WNW,296,8.0,9.0,76,0.00,,,0.00,weatherlink.com 1.10,2013-03-22 14:02:00,
2013-03-22 10:17:00,28.7,21.0,30.07,West,277,5.0,8.0,74,0.00,,,0.00,weatherlink.com 1.10,2013-03-22 14:17:00,
2013-03-22 10:32:00,29.0,21.0,30.07,WNW,284,5.0,9.0,72,0.00,,,0.00,weatherlink.com 1.10,2013-03-22 14:32:00,
2013-03-22 10:47:00,29.8,21.0,30.07,West,279,3.0,7.0,71,0.00,,,0.00,weatherlink.com 1.10,2013-03-22 14:47:00,
2013-03-22 11:02:00,30.3,21.0,30.06,West,264,4.0,9.0,68,0.00,,,0.00,weatherlink.com 1.10,2013-03-22 15:02:00,
2013-03-22 11:17:00,31.4,20.0,30.07,West,276,1.0,8.0,64,0.00,,,0.00,weatherlink.com 1.10,2013-03-22 15:17:00,
2013-03-22 11:32:00,32.3,21.0,30.07,NW,309,3.0,6.0,63,0.00,,,0.00,weatherlink.com 1.10,2013-03-22 15:32:00,
2013-03-22 11:47:00,32.7,21.0,30.07,WSW,248,3.0,11.0,63,0.00,,,0.00,weatherlink.com 1.10,2013-03-22 15:47:00,
2013-03-22 12:02:00,34.1,22.0,30.07,West,261,3.0,8.0,61,0.00,,,0.00,weatherlink.com 1.10,2013-03-22 16:02:00,
2013-03-22 12:17:00,34.5,22.0,30.07,WNW,283,3.0,8.0,60,0.00,,,0.00,weatherlink.com 1.10,2013-03-22 16:17:00,
2013-03-22 12:32:00,35.7,21.0,30.07,WSW,246,4.0,11.0,56,0.00,,,0.00,weatherlink.com 1.10,2013-03-22 16:32:00,
2013-03-22 12:47:00,36.3,21.0,30.07,WSW,249,1.0,7.0,55,0.00,,,0.00,weatherlink.com 1.10,2013-03-22 16:47:00,
2013-03-22 13:03:00,36.4,20.0,30.07,WNW,291,8.0,10.0,52,0.00,,,0.00,weatherlink.com 1.10,2013-03-22 17:03:00,
2013-03-22 13:18:00,37.2,19.0,30.07,West,271,4.0,11.0,48,0.00,,,0.00,weatherlink.com 1.10,2013-03-22 17:18:00,
2013-03-22 13:33:00,37.2,20.0,30.07,West,271,7.0,14.0,50,0.00,,,0.00,weatherlink.com 1.10,2013-03-22 17:33:00,
2013-03-22 13:48:00,38.0,21.0,30.06,West,261,4.0,13.0,50,0.00,,,0.00,weatherlink.com 1.10,2013-03-22 17:48:00,
2013-03-22 14:03:00,39.1,22.0,30.06,WNW,286,4.0,6.0,50,0.00,,,0.00,weatherlink.com 1.10,2013-03-22 18:03:00,
2013-03-22 14:18:00,39.8,21.0,30.05,West,265,5.0,14.0,48,0.00,,,0.00,weatherlink.com 1.10,2013-03-22 18:18:00,
2013-03-22 14:33:00,39.8,20.0,30.05,West,265,7.0,17.0,46,0.00,,,0.00,weatherlink.com 1.10,2013-03-22 18:33:00,
2013-03-22 14:48:00,40.4,23.0,30.05,West,279,0.0,9.0,50,0.00,,,0.00,weatherlink.com 1.10,2013-03-22 18:48:00,
2013-03-22 15:03:00,40.9,23.0,30.04,NW,311,2.0,9.0,50,0.00,,,0.00,weatherlink.com 1.10,2013-03-22 19:03:00,
2013-03-22 15:18:00,41.4,23.0,30.04,WNW,283,3.0,8.0,49,0.00,,,0.00,weatherlink.com 1.10,2013-03-22 19:18:00,
2013-03-22 15:33:00,41.3,20.0,30.03,West,261,6.0,11.0,42,0.00,,,0.00,weatherlink.com 1.10,2013-03-22 19:33:00,
2013-03-22 16:03:00,41.7,21.0,30.02,WNW,282,11.0,11.0,43,0.00,,,0.00,weatherlink.com 1.10,2013-03-22 20:03:00,
2013-03-22 16:18:00,41.8,20.0,30.02,West,267,1.0,8.0,42,0.00,,,0.00,weatherlink.com 1.10,2013-03-22 20:18:00,
2013-03-22 16:33:00,42.3,19.0,30.02,North,5,4.0,11.0,40,0.00,,,0.00,weatherlink.com 1.10,2013-03-22 20:33:00,
2013-03-22 16:48:00,42.0,20.0,30.01,West,263,5.0,9.0,42,0.00,,,0.00,weatherlink.com 1.10,2013-03-22 20:48:00,
2013-03-22 17:03:00,42.6,21.0,30.01,West,268,5.0,13.0,42,0.00,,,0.00,weatherlink.com 1.10,2013-03-22 21:03:00,
2013-03-22 17:18:00,42.2,20.0,30.01,WNW,284,6.0,9.0,41,0.00,,,0.00,weatherlink.com 1.10,2013-03-22 21:18:00,
2013-03-22 17:33:00,41.5,20.0,30.01,North,350,5.0,11.0,42,0.00,,,0.00,weatherlink.com 1.10,2013-03-22 21:33:00,
2013-03-22 17:48:00,41.2,21.0,30.01,SW,236,1.0,11.0,44,0.00,,,0.00,weatherlink.com 1.10,2013-03-22 21:48:00,
2013-03-22 18:03:00,40.4,19.0,30.01,NNE,26,1.0,7.0,43,0.00,,,0.00,weatherlink.com 1.10,2013-03-22 22:03:00,
2013-03-22 18:18:00,40.2,21.0,30.02,West,260,3.0,9.0,46,0.00,,,0.00,weatherlink.com 1.10,2013-03-22 22:18:00,
2013-03-22 18:33:00,40.0,20.0,30.02,NNW,329,2.0,6.0,45,0.00,,,0.00,weatherlink.com 1.10,2013-03-22 22:33:00,
2013-03-22 18:48:00,39.5,20.0,30.03,North,11,0.0,8.0,45,0.00,,,0.00,weatherlink.com 1.10,2013-03-22 22:48:00,
2013-03-22 19:03:00,38.9,20.0,30.03,WNW,296,5.0,7.0,47,0.00,,,0.00,weatherlink.com 1.10,2013-03-22 23:03:00,
2013-03-22 19:18:00,38.5,20.0,30.03,NW,321,1.0,6.0,47,0.00,,,0.00,weatherlink.com 1.10,2013-03-22 23:18:00,
2013-03-22 19:33:00,38.0,19.0,30.03,WNW,287,1.0,7.0,47,0.00,,,0.00,weatherlink.com 1.10,2013-03-22 23:33:00,
2013-03-22 19:48:00,37.4,20.0,30.04,NW,326,3.0,5.0,49,0.00,,,0.00,weatherlink.com 1.10,2013-03-22 23:48:00,
2013-03-22 20:03:00,36.2,20.0,30.04,NNE,17,1.0,5.0,52,0.00,,,0.00,weatherlink.com 1.10,2013-03-23 00:03:00,
2013-03-22 20:18:00,35.2,20.0,30.05,WNW,285,3.0,5.0,54,0.00,,,0.00,weatherlink.com 1.10,2013-03-23 00:18:00,
2013-03-22 20:33:00,34.5,19.0,30.05,NNE,32,1.0,6.0,54,0.00,,,0.00,weatherlink.com 1.10,2013-03-23 00:33:00,
2013-03-22 20:48:00,33.8,19.0,30.06,North,355,1.0,3.0,54,0.00,,,0.00,weatherlink.com 1.10,2013-03-23 00:48:00,
2013-03-22 21:03:00,33.0,18.0,30.06,NNE,12,0.0,4.0,54,0.00,,,0.00,weatherlink.com 1.10,2013-03-23 01:03:00,
2013-03-22 21:18:00,32.6,18.0,30.06,NE,36,3.0,4.0,55,0.00,,,0.00,weatherlink.com 1.10,2013-03-23 01:18:00,
2013-03-22 21:33:00,32.3,17.0,30.06,NE,42,4.0,6.0,54,0.00,,,0.00,weatherlink.com 1.10,2013-03-23 01:33:00,
2013-03-22 21:48:00,31.9,16.0,30.05,NNE,24,3.0,6.0,53,0.00,,,0.00,weatherlink.com 1.10,2013-03-23 01:48:00,
2013-03-22 22:03:00,31.5,16.0,30.05,NNE,13,1.0,5.0,54,0.00,,,0.00,weatherlink.com 1.10,2013-03-23 02:03:00,
2013-03-22 22:18:00,31.3,15.0,30.06,NNE,31,1.0,6.0,52,0.00,,,0.00,weatherlink.com 1.10,2013-03-23 02:18:00,
2013-03-22 22:33:00,31.1,16.0,30.06,NNE,29,2.0,5.0,53,0.00,,,0.00,weatherlink.com 1.10,2013-03-23 02:33:00,
2013-03-22 22:48:00,30.9,16.0,30.07,North,5,0.0,3.0,54,0.00,,,0.00,weatherlink.com 1.10,2013-03-23 02:48:00,
2013-03-22 23:03:00,30.5,16.0,30.07,North,360,0.0,3.0,55,0.00,,,0.00,weatherlink.com 1.10,2013-03-23 03:03:00,
2013-03-22 23:18:00,30.2,16.0,30.07,NNW,332,0.0,2.0,55,0.00,,,0.00,weatherlink.com 1.10,2013-03-23 03:18:00,
2013-03-22 23:33:00,29.7,16.0,30.08,NNW,331,1.0,3.0,56,0.00,,,0.00,weatherlink.com 1.10,2013-03-23 03:33:00,
2013-03-22 23:49:00,29.5,16.0,30.09,NW,326,1.0,3.0,57,0.00,,,0.00,weatherlink.com 1.10,2013-03-23 03:49:00,